Ship Status Report: callsign V2OR

sailwx.info

Track history (hours):
 
Tides and Currents Weather Stations Pressure Air Temp Water Temp Dewpoint Dewpoint Depression Visibility Wind Speed Wind Dir Waves Ship Positions

Callsign V2OR (name unknown)

Last reported at 2015-May-27 15:33 UTC. Time now 2015-Aug-03 19:10 UTC.
Position N 51°08' E 003°46'.
Warning: this ship's position is months out of date.

Date/timePositionNaut miles runAvg speedWind from/ knotsBaromVisibWave heightAir tempDewpointWater temp
2015-May-27 15:33N 51°08' E 003°46'0 0.0
2015-May-27 10:27N 51°08' E 003°46'0 0.0
2015-May-27 09:33N 51°08' E 003°46'0 0.0
2015-May-27 08:33N 51°08' E 003°46'7 6.4
2015-May-27 07:31N 51°14' E 003°49'10 5.2
2015-May-27 05:33N 51°24' E 003°42'1311.1
2015-May-27 04:21N 51°32' E 003°25'28 9.9
2015-May-27 01:32N 51°59' E 003°21'8 8.4
2015-May-27 00:33N 52°03' E 003°33'11 9.4
2015-May-26 23:24N 52°03' E 003°51'910.1
2015-May-26 22:33N 51°59' E 004°04'1110.9
2015-May-26 21:33N 51°53' E 004°18'0 0.2
2015-May-26 20:34N 51°54' E 004°18'0 0.0
2015-May-26 19:33N 51°53' E 004°18'3 2.9
2015-May-26 18:33N 51°51' E 004°21'10 9.7
2015-May-26 17:33N 51°48' E 004°36'7 0.7
2015-May-26 07:22N 51°41' E 004°36'4 0.2
2015-May-25 16:30N 51°45' E 004°38'7 7.2
2015-May-25 15:33N 51°50' E 004°31'7 7.2
2015-May-25 14:33N 51°52' E 004°20'7 7.0
2015-May-25 13:33N 51°57' E 004°11'8 7.9
2015-May-25 12:32N 52°00' E 003°59'  
2015-May-21 16:16N 63°35' E 009°27'13 7.5
2015-May-21 14:33N 63°31' E 009°54'9 9.2
2015-May-21 13:33N 63°22' E 009°57'3 2.8
2015-May-21 12:30N 63°19' E 009°53'0 0.0
2015-May-21 11:24N 63°19' E 009°53'0 0.0
2015-May-21 10:29N 63°19' E 009°53'0 0.0
2015-May-21 09:30N 63°19' E 009°53'0 0.0
2015-May-21 08:18N 63°19' E 009°53'0 0.0
2015-May-21 07:24N 63°19' E 009°53'0 0.0
2015-May-21 06:30N 63°19' E 009°53'0 0.0
2015-May-21 05:18N 63°19' E 009°53'0 0.0
2015-May-21 04:33N 63°19' E 009°53'0 0.0
2015-May-21 03:33N 63°19' E 009°53'0 0.0
2015-May-21 02:29N 63°19' E 009°53'0 0.0
2015-May-21 01:30N 63°19' E 009°53'0 0.0
2015-May-21 00:33N 63°19' E 009°53'0 0.0
2015-May-20 23:32N 63°19' E 009°53'0 0.0
2015-May-20 22:32N 63°19' E 009°53'0 0.0
2015-May-20 21:30N 63°19' E 009°53'0 0.0
2015-May-20 20:33N 63°19' E 009°53'0 0.0
2015-May-20 19:32N 63°19' E 009°53'0 0.0
2015-May-20 18:33N 63°19' E 009°53'0 0.0
2015-May-20 17:33N 63°19' E 009°53'0 0.0
2015-May-20 16:33N 63°19' E 009°53'0 0.0
2015-May-20 15:32N 63°19' E 009°53'0 0.0
2015-May-20 14:32N 63°19' E 009°53'0 0.0
2015-May-20 13:32N 63°19' E 009°53'0 0.0
2015-May-20 12:32N 63°19' E 009°53'0 0.0
2015-May-20 11:32N 63°19' E 009°53'0 0.0
2015-May-20 10:32N 63°19' E 009°53'1 0.3
2015-May-20 07:32N 63°19' E 009°51'0 0.0
2015-May-20 06:14N 63°19' E 009°51'0 0.0
2015-May-20 05:33N 63°19' E 009°51'0 0.0
2015-May-20 04:33N 63°19' E 009°51'0 0.0
2015-May-20 03:33N 63°19' E 009°51'0 0.0
2015-May-19 22:33N 63°19' E 009°51'0 0.0
2015-May-19 21:32N 63°19' E 009°51'0 0.0
2015-May-19 20:32N 63°19' E 009°51'0 0.0
2015-May-19 19:32N 63°19' E 009°51'7 6.7
2015-May-19 18:33N 63°24' E 009°59'9 9.2
2015-May-19 17:33N 63°33' E 009°51'9 6.8
2015-May-19 16:13N 63°38' E 009°33'4 6.7
2015-May-19 15:32N 63°42' E 009°31'8 6.0
2015-May-19 14:15N 63°49' E 009°38'0 0.0
2015-May-19 05:27N 63°49' E 009°38'5 5.3
2015-May-19 04:25N 63°44' E 009°32'10 9.6
2015-May-19 03:23N 63°35' E 009°24'  
Track history (hours):
 
Tides and Currents Weather Stations Pressure Air Temp Water Temp Dewpoint Dewpoint Depression Visibility Wind Speed Wind Dir Waves Ship Positions

Callsign V2OR (name unknown)

Last reported at 2015-May-27 15:33 UTC. Time now 2015-Aug-03 19:10 UTC.
Position N 51°08' E 003°46'.
Warning: this ship's position is months out of date.

Date/timePositionNaut miles runAvg speedWind from/ knotsBaromVisibWave heightAir tempDewpointWater temp
2015-May-27 15:33N 51°08' E 003°46'0 0.0
2015-May-27 10:27N 51°08' E 003°46'0 0.0
2015-May-27 09:33N 51°08' E 003°46'0 0.0
2015-May-27 08:33N 51°08' E 003°46'7 6.4
2015-May-27 07:31N 51°14' E 003°49'10 5.2
2015-May-27 05:33N 51°24' E 003°42'1311.1
2015-May-27 04:21N 51°32' E 003°25'28 9.9
2015-May-27 01:32N 51°59' E 003°21'8 8.4
2015-May-27 00:33N 52°03' E 003°33'11 9.4
2015-May-26 23:24N 52°03' E 003°51'910.1
2015-May-26 22:33N 51°59' E 004°04'1110.9
2015-May-26 21:33N 51°53' E 004°18'0 0.2
2015-May-26 20:34N 51°54' E 004°18'0 0.0
2015-May-26 19:33N 51°53' E 004°18'3 2.9
2015-May-26 18:33N 51°51' E 004°21'10 9.7
2015-May-26 17:33N 51°48' E 004°36'7 0.7
2015-May-26 07:22N 51°41' E 004°36'4 0.2
2015-May-25 16:30N 51°45' E 004°38'7 7.2
2015-May-25 15:33N 51°50' E 004°31'7 7.2
2015-May-25 14:33N 51°52' E 004°20'7 7.0
2015-May-25 13:33N 51°57' E 004°11'8 7.9
2015-May-25 12:32N 52°00' E 003°59'  
2015-May-21 16:16N 63°35' E 009°27'13 7.5
2015-May-21 14:33N 63°31' E 009°54'9 9.2
2015-May-21 13:33N 63°22' E 009°57'3 2.8
2015-May-21 12:30N 63°19' E 009°53'0 0.0
2015-May-21 11:24N 63°19' E 009°53'0 0.0
2015-May-21 10:29N 63°19' E 009°53'0 0.0
2015-May-21 09:30N 63°19' E 009°53'0 0.0
2015-May-21 08:18N 63°19' E 009°53'0 0.0
2015-May-21 07:24N 63°19' E 009°53'0 0.0
2015-May-21 06:30N 63°19' E 009°53'0 0.0
2015-May-21 05:18N 63°19' E 009°53'0 0.0
2015-May-21 04:33N 63°19' E 009°53'0 0.0
2015-May-21 03:33N 63°19' E 009°53'0 0.0
2015-May-21 02:29N 63°19' E 009°53'0 0.0
2015-May-21 01:30N 63°19' E 009°53'0 0.0
2015-May-21 00:33N 63°19' E 009°53'0 0.0
2015-May-20 23:32N 63°19' E 009°53'0 0.0
2015-May-20 22:32N 63°19' E 009°53'0 0.0
2015-May-20 21:30N 63°19' E 009°53'0 0.0
2015-May-20 20:33N 63°19' E 009°53'0 0.0
2015-May-20 19:32N 63°19' E 009°53'0 0.0
2015-May-20 18:33N 63°19' E 009°53'0 0.0
2015-May-20 17:33N 63°19' E 009°53'0 0.0
2015-May-20 16:33N 63°19' E 009°53'0 0.0
2015-May-20 15:32N 63°19' E 009°53'0 0.0
2015-May-20 14:32N 63°19' E 009°53'0 0.0
2015-May-20 13:32N 63°19' E 009°53'0 0.0
2015-May-20 12:32N 63°19' E 009°53'0 0.0
2015-May-20 11:32N 63°19' E 009°53'0 0.0
2015-May-20 10:32N 63°19' E 009°53'1 0.3
2015-May-20 07:32N 63°19' E 009°51'0 0.0
2015-May-20 06:14N 63°19' E 009°51'0 0.0
2015-May-20 05:33N 63°19' E 009°51'0 0.0
2015-May-20 04:33N 63°19' E 009°51'0 0.0
2015-May-20 03:33N 63°19' E 009°51'0 0.0
2015-May-19 22:33N 63°19' E 009°51'0 0.0
2015-May-19 21:32N 63°19' E 009°51'0 0.0
2015-May-19 20:32N 63°19' E 009°51'0 0.0
2015-May-19 19:32N 63°19' E 009°51'7 6.7
2015-May-19 18:33N 63°24' E 009°59'9 9.2
2015-May-19 17:33N 63°33' E 009°51'9 6.8
2015-May-19 16:13N 63°38' E 009°33'4 6.7
2015-May-19 15:32N 63°42' E 009°31'8 6.0
2015-May-19 14:15N 63°49' E 009°38'0 0.0
2015-May-19 05:27N 63°49' E 009°38'5 5.3
2015-May-19 04:25N 63°44' E 009°32'10 9.6
2015-May-19 03:23N 63°35' E 009°24'  

Dump ship's entire track history